sensor_id;sensor_type;location;lat;lon;timestamp;P1;durP1;ratioP1;P2;durP2;ratioP2
3465;SDS011;1747;48.884;9.160;2022-07-04T00:01:31;3.67;;;1.70;;
3465;SDS011;1747;48.884;9.160;2022-07-04T00:04:00;2.88;;;1.75;;
3465;SDS011;1747;48.884;9.160;2022-07-04T00:06:26;5.43;;;1.65;;
3465;SDS011;1747;48.884;9.160;2022-07-04T00:08:53;2.95;;;1.60;;
3465;SDS011;1747;48.884;9.160;2022-07-04T00:11:20;5.70;;;2.20;;
3465;SDS011;1747;48.884;9.160;2022-07-04T00:13:47;6.20;;;1.75;;
3465;SDS011;1747;48.884;9.160;2022-07-04T00:16:14;4.50;;;1.23;;
3465;SDS011;1747;48.884;9.160;2022-07-04T00:18:42;1.52;;;1.40;;
3465;SDS011;1747;48.884;9.160;2022-07-04T00:21:09;4.25;;;1.60;;
3465;SDS011;1747;48.884;9.160;2022-07-04T00:23:36;2.30;;;1.60;;
3465;SDS011;1747;48.884;9.160;2022-07-04T00:26:03;3.47;;;2.05;;
3465;SDS011;1747;48.884;9.160;2022-07-04T00:28:29;3.90;;;1.90;;
3465;SDS011;1747;48.884;9.160;2022-07-04T00:30:56;2.92;;;1.42;;
3465;SDS011;1747;48.884;9.160;2022-07-04T00:33:23;3.55;;;1.83;;
3465;SDS011;1747;48.884;9.160;2022-07-04T00:35:51;3.78;;;1.70;;
3465;SDS011;1747;48.884;9.160;2022-07-04T00:38:18;4.65;;;1.27;;
3465;SDS011;1747;48.884;9.160;2022-07-04T00:40:45;4.38;;;1.50;;
3465;SDS011;1747;48.884;9.160;2022-07-04T00:43:12;3.40;;;1.60;;
3465;SDS011;1747;48.884;9.160;2022-07-04T00:45:39;2.80;;;1.50;;
3465;SDS011;1747;48.884;9.160;2022-07-04T00:48:06;3.83;;;1.70;;
3465;SDS011;1747;48.884;9.160;2022-07-04T00:50:33;3.70;;;1.60;;
3465;SDS011;1747;48.884;9.160;2022-07-04T00:53:01;2.05;;;1.40;;
3465;SDS011;1747;48.884;9.160;2022-07-04T00:55:28;3.65;;;1.65;;
3465;SDS011;1747;48.884;9.160;2022-07-04T00:57:55;2.78;;;1.27;;
3465;SDS011;1747;48.884;9.160;2022-07-04T01:00:22;4.57;;;1.73;;
3465;SDS011;1747;48.884;9.160;2022-07-04T01:02:49;3.67;;;1.70;;
3465;SDS011;1747;48.884;9.160;2022-07-04T01:05:16;3.50;;;1.67;;
3465;SDS011;1747;48.884;9.160;2022-07-04T01:07:43;3.67;;;1.40;;
3465;SDS011;1747;48.884;9.160;2022-07-04T01:10:11;2.83;;;1.83;;
3465;SDS011;1747;48.884;9.160;2022-07-04T01:12:38;1.98;;;1.70;;
3465;SDS011;1747;48.884;9.160;2022-07-04T01:15:06;2.72;;;1.52;;
3465;SDS011;1747;48.884;9.160;2022-07-04T01:17:33;6.07;;;1.45;;
3465;SDS011;1747;48.884;9.160;2022-07-04T01:20:01;2.70;;;1.60;;
3465;SDS011;1747;48.884;9.160;2022-07-04T01:22:29;1.80;;;1.45;;
3465;SDS011;1747;48.884;9.160;2022-07-04T01:25:14;4.68;;;1.73;;
3465;SDS011;1747;48.884;9.160;2022-07-04T01:27:41;5.70;;;1.67;;
3465;SDS011;1747;48.884;9.160;2022-07-04T01:30:09;3.40;;;1.90;;
3465;SDS011;1747;48.884;9.160;2022-07-04T01:32:36;4.15;;;1.90;;
3465;SDS011;1747;48.884;9.160;2022-07-04T01:35:05;3.60;;;1.75;;
3465;SDS011;1747;48.884;9.160;2022-07-04T01:37:34;3.13;;;1.73;;
3465;SDS011;1747;48.884;9.160;2022-07-04T01:40:01;3.38;;;1.60;;
3465;SDS011;1747;48.884;9.160;2022-07-04T01:42:28;3.42;;;1.70;;
3465;SDS011;1747;48.884;9.160;2022-07-04T01:44:54;8.23;;;1.92;;
3465;SDS011;1747;48.884;9.160;2022-07-04T01:47:21;6.70;;;1.70;;
3465;SDS011;1747;48.884;9.160;2022-07-04T01:49:48;2.80;;;1.48;;
3465;SDS011;1747;48.884;9.160;2022-07-04T01:52:15;5.78;;;1.73;;
3465;SDS011;1747;48.884;9.160;2022-07-04T01:54:43;5.15;;;1.70;;
3465;SDS011;1747;48.884;9.160;2022-07-04T01:57:10;1.50;;;1.30;;
3465;SDS011;1747;48.884;9.160;2022-07-04T01:59:38;4.72;;;1.85;;
3465;SDS011;1747;48.884;9.160;2022-07-04T02:02:22;6.50;;;1.83;;
3465;SDS011;1747;48.884;9.160;2022-07-04T02:04:49;2.63;;;1.67;;
3465;SDS011;1747;48.884;9.160;2022-07-04T02:07:17;2.95;;;2.00;;
3465;SDS011;1747;48.884;9.160;2022-07-04T02:09:45;2.53;;;1.40;;
3465;SDS011;1747;48.884;9.160;2022-07-04T02:12:12;2.72;;;1.52;;
3465;SDS011;1747;48.884;9.160;2022-07-04T02:14:57;4.03;;;1.92;;
3465;SDS011;1747;48.884;9.160;2022-07-04T02:17:23;3.78;;;1.52;;
3465;SDS011;1747;48.884;9.160;2022-07-04T02:19:50;3.90;;;1.67;;
3465;SDS011;1747;48.884;9.160;2022-07-04T02:22:17;2.90;;;1.70;;
3465;SDS011;1747;48.884;9.160;2022-07-04T02:24:46;3.50;;;1.73;;
3465;SDS011;1747;48.884;9.160;2022-07-04T02:27:13;4.78;;;1.90;;
3465;SDS011;1747;48.884;9.160;2022-07-04T02:29:40;5.05;;;1.58;;
3465;SDS011;1747;48.884;9.160;2022-07-04T02:32:07;2.75;;;1.35;;
3465;SDS011;1747;48.884;9.160;2022-07-04T02:34:35;3.58;;;1.90;;
3465;SDS011;1747;48.884;9.160;2022-07-04T02:37:02;4.13;;;1.58;;
3465;SDS011;1747;48.884;9.160;2022-07-04T02:39:29;2.80;;;1.92;;
3465;SDS011;1747;48.884;9.160;2022-07-04T02:41:57;2.35;;;1.80;;
3465;SDS011;1747;48.884;9.160;2022-07-04T02:44:24;2.58;;;1.55;;
3465;SDS011;1747;48.884;9.160;2022-07-04T02:46:51;3.83;;;1.60;;
3465;SDS011;1747;48.884;9.160;2022-07-04T02:49:18;3.85;;;1.80;;
3465;SDS011;1747;48.884;9.160;2022-07-04T02:51:45;4.68;;;1.90;;
3465;SDS011;1747;48.884;9.160;2022-07-04T02:54:12;3.35;;;1.90;;
3465;SDS011;1747;48.884;9.160;2022-07-04T02:56:39;6.95;;;1.50;;
3465;SDS011;1747;48.884;9.160;2022-07-04T02:59:07;3.05;;;1.40;;
3465;SDS011;1747;48.884;9.160;2022-07-04T03:01:34;6.47;;;2.00;;
3465;SDS011;1747;48.884;9.160;2022-07-04T03:04:02;2.08;;;1.55;;
3465;SDS011;1747;48.884;9.160;2022-07-04T03:06:29;2.75;;;1.70;;
3465;SDS011;1747;48.884;9.160;2022-07-04T03:08:56;7.55;;;1.73;;
3465;SDS011;1747;48.884;9.160;2022-07-04T03:11:23;3.35;;;1.52;;
3465;SDS011;1747;48.884;9.160;2022-07-04T03:13:50;5.85;;;1.70;;
3465;SDS011;1747;48.884;9.160;2022-07-04T03:16:18;3.50;;;1.80;;
3465;SDS011;1747;48.884;9.160;2022-07-04T03:18:45;1.90;;;1.65;;
3465;SDS011;1747;48.884;9.160;2022-07-04T03:21:12;2.28;;;1.73;;
3465;SDS011;1747;48.884;9.160;2022-07-04T03:23:39;3.97;;;2.00;;
3465;SDS011;1747;48.884;9.160;2022-07-04T03:26:06;8.40;;;1.80;;
3465;SDS011;1747;48.884;9.160;2022-07-04T03:28:34;4.00;;;1.80;;
3465;SDS011;1747;48.884;9.160;2022-07-04T03:31:01;3.03;;;1.65;;
3465;SDS011;1747;48.884;9.160;2022-07-04T03:33:31;7.75;;;1.90;;
3465;SDS011;1747;48.884;9.160;2022-07-04T03:36:00;4.15;;;1.60;;
3465;SDS011;1747;48.884;9.160;2022-07-04T03:38:27;1.95;;;1.52;;
3465;SDS011;1747;48.884;9.160;2022-07-04T03:40:56;3.88;;;1.70;;
3465;SDS011;1747;48.884;9.160;2022-07-04T03:43:23;3.28;;;1.70;;
3465;SDS011;1747;48.884;9.160;2022-07-04T03:45:50;4.22;;;2.00;;
3465;SDS011;1747;48.884;9.160;2022-07-04T03:48:17;2.80;;;1.65;;
3465;SDS011;1747;48.884;9.160;2022-07-04T03:50:45;7.28;;;1.77;;
3465;SDS011;1747;48.884;9.160;2022-07-04T03:53:12;2.33;;;1.80;;
3465;SDS011;1747;48.884;9.160;2022-07-04T03:55:40;4.20;;;2.10;;
3465;SDS011;1747;48.884;9.160;2022-07-04T03:58:07;3.15;;;1.70;;
3465;SDS011;1747;48.884;9.160;2022-07-04T04:00:34;3.08;;;1.75;;
3465;SDS011;1747;48.884;9.160;2022-07-04T04:03:01;3.60;;;1.95;;
3465;SDS011;1747;48.884;9.160;2022-07-04T04:05:49;3.65;;;1.70;;
3465;SDS011;1747;48.884;9.160;2022-07-04T04:08:15;5.70;;;1.80;;
3465;SDS011;1747;48.884;9.160;2022-07-04T04:10:42;3.05;;;1.77;;
3465;SDS011;1747;48.884;9.160;2022-07-04T04:13:09;2.38;;;1.52;;
3465;SDS011;1747;48.884;9.160;2022-07-04T04:15:36;7.35;;;1.95;;
3465;SDS011;1747;48.884;9.160;2022-07-04T04:18:03;3.00;;;1.80;;
3465;SDS011;1747;48.884;9.160;2022-07-04T04:20:29;8.00;;;1.95;;
3465;SDS011;1747;48.884;9.160;2022-07-04T04:22:58;9.13;;;1.92;;
3465;SDS011;1747;48.884;9.160;2022-07-04T04:25:25;4.72;;;1.60;;
3465;SDS011;1747;48.884;9.160;2022-07-04T04:27:52;2.80;;;1.80;;
3465;SDS011;1747;48.884;9.160;2022-07-04T04:30:19;4.88;;;1.88;;
3465;SDS011;1747;48.884;9.160;2022-07-04T04:32:45;5.30;;;1.77;;
3465;SDS011;1747;48.884;9.160;2022-07-04T04:35:12;4.57;;;2.03;;
3465;SDS011;1747;48.884;9.160;2022-07-04T04:37:39;8.95;;;1.67;;
3465;SDS011;1747;48.884;9.160;2022-07-04T04:40:08;2.47;;;1.83;;
3465;SDS011;1747;48.884;9.160;2022-07-04T04:42:36;3.17;;;2.20;;
3465;SDS011;1747;48.884;9.160;2022-07-04T04:45:04;7.75;;;1.90;;
3465;SDS011;1747;48.884;9.160;2022-07-04T04:47:31;3.38;;;2.00;;
3465;SDS011;1747;48.884;9.160;2022-07-04T04:49:58;6.80;;;1.80;;
3465;SDS011;1747;48.884;9.160;2022-07-04T04:52:26;7.60;;;2.13;;
3465;SDS011;1747;48.884;9.160;2022-07-04T04:54:53;3.33;;;2.10;;
3465;SDS011;1747;48.884;9.160;2022-07-04T04:57:22;5.93;;;2.08;;
3465;SDS011;1747;48.884;9.160;2022-07-04T04:59:49;3.50;;;1.65;;
3465;SDS011;1747;48.884;9.160;2022-07-04T05:02:15;5.82;;;2.00;;
3465;SDS011;1747;48.884;9.160;2022-07-04T05:04:42;3.15;;;1.95;;
3465;SDS011;1747;48.884;9.160;2022-07-04T05:07:09;4.30;;;2.20;;
3465;SDS011;1747;48.884;9.160;2022-07-04T05:09:36;2.55;;;1.65;;
3465;SDS011;1747;48.884;9.160;2022-07-04T05:12:04;5.80;;;1.83;;
3465;SDS011;1747;48.884;9.160;2022-07-04T05:14:33;5.18;;;1.80;;
3465;SDS011;1747;48.884;9.160;2022-07-04T05:17:00;3.13;;;1.85;;
3465;SDS011;1747;48.884;9.160;2022-07-04T05:19:27;4.80;;;2.00;;
3465;SDS011;1747;48.884;9.160;2022-07-04T05:21:54;6.43;;;1.95;;
3465;SDS011;1747;48.884;9.160;2022-07-04T05:24:21;4.20;;;1.70;;
3465;SDS011;1747;48.884;9.160;2022-07-04T05:26:48;4.03;;;1.77;;
3465;SDS011;1747;48.884;9.160;2022-07-04T05:29:15;4.93;;;1.70;;
3465;SDS011;1747;48.884;9.160;2022-07-04T05:31:43;4.68;;;1.85;;
3465;SDS011;1747;48.884;9.160;2022-07-04T05:34:10;4.43;;;1.75;;
3465;SDS011;1747;48.884;9.160;2022-07-04T06:43:40;6.18;;;1.60;;
3465;SDS011;1747;48.884;9.160;2022-07-04T06:46:07;5.63;;;1.70;;
3465;SDS011;1747;48.884;9.160;2022-07-04T06:48:34;5.50;;;1.67;;
3465;SDS011;1747;48.884;9.160;2022-07-04T06:51:01;3.17;;;1.80;;
3465;SDS011;1747;48.884;9.160;2022-07-04T06:53:28;2.67;;;1.80;;
3465;SDS011;1747;48.884;9.160;2022-07-04T06:55:55;2.03;;;1.70;;
3465;SDS011;1747;48.884;9.160;2022-07-04T06:58:22;3.92;;;1.77;;
3465;SDS011;1747;48.884;9.160;2022-07-04T07:00:50;7.97;;;1.60;;
3465;SDS011;1747;48.884;9.160;2022-07-04T07:03:17;6.18;;;1.90;;
3465;SDS011;1747;48.884;9.160;2022-07-04T07:05:44;3.10;;;1.90;;
3465;SDS011;1747;48.884;9.160;2022-07-04T07:08:11;4.40;;;1.85;;
3465;SDS011;1747;48.884;9.160;2022-07-04T07:10:37;4.25;;;1.80;;
3465;SDS011;1747;48.884;9.160;2022-07-04T07:13:04;4.90;;;1.75;;
3465;SDS011;1747;48.884;9.160;2022-07-04T07:15:31;4.45;;;1.83;;
3465;SDS011;1747;48.884;9.160;2022-07-04T07:18:01;5.30;;;1.80;;
3465;SDS011;1747;48.884;9.160;2022-07-04T07:20:28;4.40;;;1.88;;
3465;SDS011;1747;48.884;9.160;2022-07-04T07:22:55;3.03;;;1.50;;
3465;SDS011;1747;48.884;9.160;2022-07-04T07:25:22;4.22;;;1.88;;
3465;SDS011;1747;48.884;9.160;2022-07-04T07:27:49;7.60;;;2.08;;
3465;SDS011;1747;48.884;9.160;2022-07-04T07:30:16;4.00;;;1.90;;
3465;SDS011;1747;48.884;9.160;2022-07-04T07:32:43;3.63;;;2.05;;
3465;SDS011;1747;48.884;9.160;2022-07-04T07:35:11;9.55;;;2.03;;
3465;SDS011;1747;48.884;9.160;2022-07-04T07:37:38;3.63;;;1.80;;
3465;SDS011;1747;48.884;9.160;2022-07-04T07:40:05;6.13;;;2.03;;
3465;SDS011;1747;48.884;9.160;2022-07-04T07:42:33;2.50;;;1.73;;
3465;SDS011;1747;48.884;9.160;2022-07-04T07:45:01;1.95;;;1.40;;
3465;SDS011;1747;48.884;9.160;2022-07-04T07:47:29;3.30;;;1.65;;
3465;SDS011;1747;48.884;9.160;2022-07-04T07:52:55;6.75;;;1.88;;
3465;SDS011;1747;48.884;9.160;2022-07-04T07:55:22;5.35;;;1.90;;
3465;SDS011;1747;48.884;9.160;2022-07-04T07:57:48;5.20;;;1.90;;
3465;SDS011;1747;48.884;9.160;2022-07-04T08:00:15;3.72;;;2.15;;
3465;SDS011;1747;48.884;9.160;2022-07-04T08:02:42;4.03;;;2.08;;
3465;SDS011;1747;48.884;9.160;2022-07-04T08:05:28;3.78;;;1.60;;
3465;SDS011;1747;48.884;9.160;2022-07-04T08:07:55;7.80;;;1.95;;
3465;SDS011;1747;48.884;9.160;2022-07-04T08:10:22;5.88;;;2.10;;
3465;SDS011;1747;48.884;9.160;2022-07-04T08:12:49;6.35;;;2.50;;
3465;SDS011;1747;48.884;9.160;2022-07-04T08:15:17;6.65;;;2.13;;
3465;SDS011;1747;48.884;9.160;2022-07-04T08:17:43;5.63;;;1.77;;
3465;SDS011;1747;48.884;9.160;2022-07-04T08:20:11;3.85;;;1.70;;
3465;SDS011;1747;48.884;9.160;2022-07-04T08:22:40;4.53;;;2.20;;
3465;SDS011;1747;48.884;9.160;2022-07-04T08:25:07;4.50;;;1.83;;
3465;SDS011;1747;48.884;9.160;2022-07-04T08:27:34;3.20;;;1.75;;
3465;SDS011;1747;48.884;9.160;2022-07-04T08:30:01;3.63;;;1.83;;
3465;SDS011;1747;48.884;9.160;2022-07-04T08:32:29;6.65;;;2.28;;
3465;SDS011;1747;48.884;9.160;2022-07-04T08:34:56;3.90;;;1.77;;
3465;SDS011;1747;48.884;9.160;2022-07-04T08:37:23;5.85;;;1.75;;
3465;SDS011;1747;48.884;9.160;2022-07-04T08:39:52;6.10;;;1.77;;
3465;SDS011;1747;48.884;9.160;2022-07-04T08:42:19;5.65;;;1.90;;
3465;SDS011;1747;48.884;9.160;2022-07-04T08:44:53;6.00;;;2.03;;
3465;SDS011;1747;48.884;9.160;2022-07-04T08:47:21;3.30;;;1.73;;
3465;SDS011;1747;48.884;9.160;2022-07-04T08:49:52;5.03;;;2.03;;
3465;SDS011;1747;48.884;9.160;2022-07-04T08:52:27;3.40;;;2.00;;
3465;SDS011;1747;48.884;9.160;2022-07-04T08:55:02;3.22;;;1.73;;
3465;SDS011;1747;48.884;9.160;2022-07-04T08:57:47;4.13;;;2.10;;
3465;SDS011;1747;48.884;9.160;2022-07-04T09:00:33;4.88;;;2.10;;
3465;SDS011;1747;48.884;9.160;2022-07-04T09:03:01;5.43;;;2.17;;
3465;SDS011;1747;48.884;9.160;2022-07-04T09:05:29;3.20;;;1.92;;
3465;SDS011;1747;48.884;9.160;2022-07-04T09:07:57;4.68;;;2.28;;
3465;SDS011;1747;48.884;9.160;2022-07-04T09:10:25;4.68;;;2.28;;
3465;SDS011;1747;48.884;9.160;2022-07-04T09:12:53;2.97;;;1.83;;
3465;SDS011;1747;48.884;9.160;2022-07-04T09:15:19;8.02;;;2.17;;
3465;SDS011;1747;48.884;9.160;2022-07-04T09:17:47;2.83;;;1.80;;
3465;SDS011;1747;48.884;9.160;2022-07-04T09:20:15;4.30;;;2.00;;
3465;SDS011;1747;48.884;9.160;2022-07-04T09:22:44;10.68;;;2.38;;
3465;SDS011;1747;48.884;9.160;2022-07-04T09:25:12;5.10;;;2.28;;
3465;SDS011;1747;48.884;9.160;2022-07-04T09:27:42;3.95;;;2.20;;
3465;SDS011;1747;48.884;9.160;2022-07-04T09:30:10;5.65;;;2.35;;
3465;SDS011;1747;48.884;9.160;2022-07-04T09:32:39;2.83;;;2.03;;
3465;SDS011;1747;48.884;9.160;2022-07-04T09:35:08;3.63;;;2.10;;
3465;SDS011;1747;48.884;9.160;2022-07-04T09:37:37;5.38;;;2.10;;
3465;SDS011;1747;48.884;9.160;2022-07-04T09:40:06;6.38;;;2.33;;
3465;SDS011;1747;48.884;9.160;2022-07-04T09:42:38;5.72;;;2.17;;
3465;SDS011;1747;48.884;9.160;2022-07-04T09:45:09;6.03;;;2.00;;
3465;SDS011;1747;48.884;9.160;2022-07-04T09:47:38;5.75;;;2.42;;
3465;SDS011;1747;48.884;9.160;2022-07-04T09:50:07;5.55;;;2.47;;
3465;SDS011;1747;48.884;9.160;2022-07-04T09:52:48;2.83;;;2.35;;
3465;SDS011;1747;48.884;9.160;2022-07-04T09:55:24;3.78;;;2.28;;
3465;SDS011;1747;48.884;9.160;2022-07-04T09:57:53;3.72;;;2.13;;
3465;SDS011;1747;48.884;9.160;2022-07-04T10:00:23;5.00;;;2.40;;
3465;SDS011;1747;48.884;9.160;2022-07-04T10:02:53;4.55;;;2.35;;
3465;SDS011;1747;48.884;9.160;2022-07-04T10:05:22;7.38;;;2.45;;
3465;SDS011;1747;48.884;9.160;2022-07-04T10:07:51;7.60;;;2.10;;
3465;SDS011;1747;48.884;9.160;2022-07-04T10:10:25;3.53;;;1.80;;
3465;SDS011;1747;48.884;9.160;2022-07-04T10:12:54;2.83;;;1.80;;
3465;SDS011;1747;48.884;9.160;2022-07-04T10:15:23;7.22;;;2.20;;
3465;SDS011;1747;48.884;9.160;2022-07-04T10:17:50;6.30;;;1.77;;
3465;SDS011;1747;48.884;9.160;2022-07-04T10:20:17;4.60;;;1.92;;
3465;SDS011;1747;48.884;9.160;2022-07-04T10:22:44;4.25;;;1.60;;
3465;SDS011;1747;48.884;9.160;2022-07-04T10:25:11;3.47;;;1.80;;
3465;SDS011;1747;48.884;9.160;2022-07-04T10:27:38;4.70;;;1.60;;
3465;SDS011;1747;48.884;9.160;2022-07-04T10:30:06;3.67;;;1.55;;
3465;SDS011;1747;48.884;9.160;2022-07-04T10:32:38;6.32;;;1.63;;
3465;SDS011;1747;48.884;9.160;2022-07-04T10:35:08;4.57;;;1.80;;
3465;SDS011;1747;48.884;9.160;2022-07-04T10:40:43;5.50;;;1.65;;
3465;SDS011;1747;48.884;9.160;2022-07-04T10:46:22;3.58;;;1.60;;
3465;SDS011;1747;48.884;9.160;2022-07-04T10:48:55;3.97;;;1.48;;
3465;SDS011;1747;48.884;9.160;2022-07-04T10:51:39;5.55;;;1.75;;
3465;SDS011;1747;48.884;9.160;2022-07-04T10:54:09;2.85;;;1.50;;
3465;SDS011;1747;48.884;9.160;2022-07-04T10:56:39;4.97;;;1.73;;
3465;SDS011;1747;48.884;9.160;2022-07-04T10:59:12;5.32;;;1.75;;
3465;SDS011;1747;48.884;9.160;2022-07-04T11:04:57;2.85;;;1.40;;
3465;SDS011;1747;48.884;9.160;2022-07-04T11:10:29;2.30;;;1.35;;
3465;SDS011;1747;48.884;9.160;2022-07-04T11:13:02;4.38;;;1.80;;
3465;SDS011;1747;48.884;9.160;2022-07-04T11:18:41;2.90;;;1.65;;
3465;SDS011;1747;48.884;9.160;2022-07-04T11:21:16;3.38;;;1.55;;
3465;SDS011;1747;48.884;9.160;2022-07-04T11:23:51;4.05;;;1.50;;
3465;SDS011;1747;48.884;9.160;2022-07-04T11:26:19;3.38;;;1.50;;
3465;SDS011;1747;48.884;9.160;2022-07-04T11:28:47;4.18;;;1.70;;
3465;SDS011;1747;48.884;9.160;2022-07-04T11:31:14;1.90;;;1.48;;
3465;SDS011;1747;48.884;9.160;2022-07-04T11:33:42;1.98;;;1.35;;
3465;SDS011;1747;48.884;9.160;2022-07-04T11:36:11;1.92;;;1.70;;
3465;SDS011;1747;48.884;9.160;2022-07-04T11:38:49;3.60;;;1.70;;
3465;SDS011;1747;48.884;9.160;2022-07-04T11:41:19;2.42;;;1.40;;
3465;SDS011;1747;48.884;9.160;2022-07-04T11:44:05;3.40;;;1.55;;
3465;SDS011;1747;48.884;9.160;2022-07-04T11:47:00;3.30;;;1.50;;
3465;SDS011;1747;48.884;9.160;2022-07-04T11:49:28;2.10;;;1.27;;
3465;SDS011;1747;48.884;9.160;2022-07-04T11:51:55;2.08;;;1.33;;
3465;SDS011;1747;48.884;9.160;2022-07-04T11:54:23;2.00;;;1.40;;
3465;SDS011;1747;48.884;9.160;2022-07-04T11:56:50;3.47;;;1.63;;
3465;SDS011;1747;48.884;9.160;2022-07-04T11:59:17;2.17;;;1.38;;
3465;SDS011;1747;48.884;9.160;2022-07-04T12:01:44;2.28;;;1.50;;
3465;SDS011;1747;48.884;9.160;2022-07-04T12:04:12;4.72;;;1.85;;
3465;SDS011;1747;48.884;9.160;2022-07-04T12:06:41;2.33;;;1.65;;
3465;SDS011;1747;48.884;9.160;2022-07-04T12:09:08;2.15;;;1.30;;
3465;SDS011;1747;48.884;9.160;2022-07-04T12:11:55;4.20;;;1.50;;
3465;SDS011;1747;48.884;9.160;2022-07-04T12:14:24;2.53;;;1.55;;
3465;SDS011;1747;48.884;9.160;2022-07-04T12:19:50;3.13;;;1.80;;
3465;SDS011;1747;48.884;9.160;2022-07-04T12:22:34;5.35;;;1.90;;
3465;SDS011;1747;48.884;9.160;2022-07-04T12:25:03;3.05;;;1.80;;
3465;SDS011;1747;48.884;9.160;2022-07-04T12:27:34;2.55;;;1.80;;
3465;SDS011;1747;48.884;9.160;2022-07-04T12:30:02;6.35;;;1.80;;
3465;SDS011;1747;48.884;9.160;2022-07-04T12:35:31;4.05;;;1.67;;
3465;SDS011;1747;48.884;9.160;2022-07-04T12:38:03;5.45;;;1.80;;
3465;SDS011;1747;48.884;9.160;2022-07-04T12:40:31;4.10;;;1.67;;
3465;SDS011;1747;48.884;9.160;2022-07-04T12:43:00;6.68;;;1.70;;
3465;SDS011;1747;48.884;9.160;2022-07-04T12:45:40;5.38;;;1.75;;
3465;SDS011;1747;48.884;9.160;2022-07-04T12:48:13;4.15;;;1.90;;
3465;SDS011;1747;48.884;9.160;2022-07-04T12:50:44;4.57;;;2.10;;
3465;SDS011;1747;48.884;9.160;2022-07-04T12:53:11;2.47;;;1.75;;
3465;SDS011;1747;48.884;9.160;2022-07-04T12:55:40;10.88;;;1.90;;
3465;SDS011;1747;48.884;9.160;2022-07-04T13:36:25;6.32;;;1.88;;
3465;SDS011;1747;48.884;9.160;2022-07-04T13:38:52;3.60;;;1.95;;
3465;SDS011;1747;48.884;9.160;2022-07-04T13:41:19;4.68;;;1.90;;
3465;SDS011;1747;48.884;9.160;2022-07-04T13:43:46;4.25;;;1.92;;
3465;SDS011;1747;48.884;9.160;2022-07-04T13:46:13;2.15;;;1.80;;
3465;SDS011;1747;48.884;9.160;2022-07-04T13:48:39;3.17;;;2.22;;
3465;SDS011;1747;48.884;9.160;2022-07-04T13:51:06;5.13;;;1.90;;
3465;SDS011;1747;48.884;9.160;2022-07-04T13:53:34;2.35;;;1.90;;
3465;SDS011;1747;48.884;9.160;2022-07-04T13:56:02;4.72;;;1.80;;
3465;SDS011;1747;48.884;9.160;2022-07-04T13:58:29;3.95;;;2.03;;
3465;SDS011;1747;48.884;9.160;2022-07-04T14:00:56;4.70;;;2.00;;
3465;SDS011;1747;48.884;9.160;2022-07-04T14:03:23;3.80;;;1.83;;
3465;SDS011;1747;48.884;9.160;2022-07-04T14:05:50;4.70;;;1.80;;
3465;SDS011;1747;48.884;9.160;2022-07-04T14:08:17;3.08;;;2.00;;
3465;SDS011;1747;48.884;9.160;2022-07-04T14:10:45;4.07;;;2.00;;
3465;SDS011;1747;48.884;9.160;2022-07-04T14:13:12;3.58;;;2.10;;
3465;SDS011;1747;48.884;9.160;2022-07-04T14:15:39;3.67;;;2.00;;
3465;SDS011;1747;48.884;9.160;2022-07-04T14:18:07;8.10;;;3.40;;
3465;SDS011;1747;48.884;9.160;2022-07-04T14:20:38;4.32;;;2.28;;
3465;SDS011;1747;48.884;9.160;2022-07-04T14:23:05;5.60;;;2.10;;
3465;SDS011;1747;48.884;9.160;2022-07-04T14:25:32;3.13;;;2.10;;
3465;SDS011;1747;48.884;9.160;2022-07-04T14:28:00;4.25;;;2.00;;
3465;SDS011;1747;48.884;9.160;2022-07-04T14:30:27;4.80;;;2.33;;
3465;SDS011;1747;48.884;9.160;2022-07-04T14:32:54;4.03;;;2.42;;
3465;SDS011;1747;48.884;9.160;2022-07-04T14:35:21;3.25;;;2.80;;
3465;SDS011;1747;48.884;9.160;2022-07-04T14:37:48;4.93;;;2.97;;
3465;SDS011;1747;48.884;9.160;2022-07-04T14:40:19;3.45;;;2.72;;
3465;SDS011;1747;48.884;9.160;2022-07-04T14:42:46;3.58;;;2.80;;
3465;SDS011;1747;48.884;9.160;2022-07-04T14:45:14;5.60;;;3.20;;
3465;SDS011;1747;48.884;9.160;2022-07-04T14:47:41;4.43;;;2.85;;
3465;SDS011;1747;48.884;9.160;2022-07-04T14:50:09;3.25;;;2.70;;
3465;SDS011;1747;48.884;9.160;2022-07-04T14:52:36;5.55;;;3.30;;
3465;SDS011;1747;48.884;9.160;2022-07-04T14:55:03;3.42;;;2.75;;
3465;SDS011;1747;48.884;9.160;2022-07-04T14:57:30;4.22;;;2.30;;
3465;SDS011;1747;48.884;9.160;2022-07-04T14:59:57;3.15;;;2.45;;
3465;SDS011;1747;48.884;9.160;2022-07-04T15:02:25;3.10;;;2.65;;
3465;SDS011;1747;48.884;9.160;2022-07-04T15:04:52;4.25;;;2.90;;
3465;SDS011;1747;48.884;9.160;2022-07-04T15:07:19;3.35;;;2.22;;
3465;SDS011;1747;48.884;9.160;2022-07-04T15:09:45;6.50;;;2.08;;
3465;SDS011;1747;48.884;9.160;2022-07-04T15:12:12;2.40;;;1.90;;
3465;SDS011;1747;48.884;9.160;2022-07-04T15:14:39;2.45;;;1.95;;
3465;SDS011;1747;48.884;9.160;2022-07-04T15:17:06;7.97;;;2.20;;
3465;SDS011;1747;48.884;9.160;2022-07-04T15:19:34;4.10;;;2.10;;
3465;SDS011;1747;48.884;9.160;2022-07-04T15:22:21;2.80;;;1.80;;
3465;SDS011;1747;48.884;9.160;2022-07-04T15:25:05;4.32;;;2.00;;
3465;SDS011;1747;48.884;9.160;2022-07-04T15:27:32;2.35;;;1.75;;
3465;SDS011;1747;48.884;9.160;2022-07-04T15:29:59;3.42;;;1.80;;
3465;SDS011;1747;48.884;9.160;2022-07-04T15:32:26;4.13;;;1.80;;
3465;SDS011;1747;48.884;9.160;2022-07-04T15:34:54;2.65;;;1.90;;
3465;SDS011;1747;48.884;9.160;2022-07-04T15:37:21;1.75;;;1.50;;
3465;SDS011;1747;48.884;9.160;2022-07-04T15:39:48;3.47;;;2.05;;
3465;SDS011;1747;48.884;9.160;2022-07-04T15:42:15;2.55;;;1.80;;
3465;SDS011;1747;48.884;9.160;2022-07-04T15:44:42;3.20;;;1.60;;
3465;SDS011;1747;48.884;9.160;2022-07-04T15:47:09;2.28;;;1.70;;
3465;SDS011;1747;48.884;9.160;2022-07-04T15:49:36;3.25;;;1.80;;
3465;SDS011;1747;48.884;9.160;2022-07-04T15:52:05;3.50;;;1.98;;
3465;SDS011;1747;48.884;9.160;2022-07-04T15:54:33;1.75;;;1.60;;
3465;SDS011;1747;48.884;9.160;2022-07-04T15:57:00;3.25;;;1.80;;
3465;SDS011;1747;48.884;9.160;2022-07-04T15:59:27;3.50;;;1.90;;
3465;SDS011;1747;48.884;9.160;2022-07-04T16:01:54;7.85;;;2.75;;
3465;SDS011;1747;48.884;9.160;2022-07-04T16:04:20;2.40;;;1.70;;
3465;SDS011;1747;48.884;9.160;2022-07-04T16:06:47;2.00;;;1.80;;
3465;SDS011;1747;48.884;9.160;2022-07-04T16:09:16;3.75;;;1.67;;
3465;SDS011;1747;48.884;9.160;2022-07-04T16:11:42;4.22;;;1.55;;
3465;SDS011;1747;48.884;9.160;2022-07-04T16:14:11;2.58;;;1.40;;
3465;SDS011;1747;48.884;9.160;2022-07-04T16:16:38;1.83;;;1.30;;
3465;SDS011;1747;48.884;9.160;2022-07-04T16:19:05;2.22;;;1.40;;
3465;SDS011;1747;48.884;9.160;2022-07-04T16:21:32;3.08;;;1.40;;
3465;SDS011;1747;48.884;9.160;2022-07-04T16:23:59;3.83;;;1.40;;
3465;SDS011;1747;48.884;9.160;2022-07-04T16:26:27;1.90;;;1.48;;
3465;SDS011;1747;48.884;9.160;2022-07-04T16:28:54;1.55;;;1.38;;
3465;SDS011;1747;48.884;9.160;2022-07-04T16:31:20;3.28;;;1.30;;
3465;SDS011;1747;48.884;9.160;2022-07-04T16:33:47;2.45;;;1.40;;
3465;SDS011;1747;48.884;9.160;2022-07-04T16:36:15;3.42;;;1.55;;
3465;SDS011;1747;48.884;9.160;2022-07-04T16:38:41;5.30;;;1.50;;
3465;SDS011;1747;48.884;9.160;2022-07-04T16:41:08;1.60;;;1.20;;
3465;SDS011;1747;48.884;9.160;2022-07-04T16:43:37;6.25;;;1.52;;
3465;SDS011;1747;48.884;9.160;2022-07-04T16:46:06;3.63;;;1.42;;
3465;SDS011;1747;48.884;9.160;2022-07-04T16:48:33;2.95;;;1.45;;
3465;SDS011;1747;48.884;9.160;2022-07-04T16:51:00;2.00;;;1.20;;
3465;SDS011;1747;48.884;9.160;2022-07-04T16:53:27;2.15;;;1.40;;
3465;SDS011;1747;48.884;9.160;2022-07-04T16:55:54;5.07;;;1.52;;
3465;SDS011;1747;48.884;9.160;2022-07-04T16:58:21;3.35;;;1.42;;
3465;SDS011;1747;48.884;9.160;2022-07-04T17:00:49;1.50;;;1.30;;
3465;SDS011;1747;48.884;9.160;2022-07-04T17:03:16;5.13;;;1.38;;
3465;SDS011;1747;48.884;9.160;2022-07-04T17:05:43;3.42;;;1.65;;
3465;SDS011;1747;48.884;9.160;2022-07-04T17:08:10;3.75;;;1.50;;
3465;SDS011;1747;48.884;9.160;2022-07-04T17:10:37;2.35;;;1.33;;
3465;SDS011;1747;48.884;9.160;2022-07-04T17:13:04;1.73;;;1.50;;
3465;SDS011;1747;48.884;9.160;2022-07-04T17:15:31;2.20;;;1.30;;
3465;SDS011;1747;48.884;9.160;2022-07-04T17:18:00;1.30;;;1.20;;
3465;SDS011;1747;48.884;9.160;2022-07-04T17:20:27;1.40;;;1.20;;
3465;SDS011;1747;48.884;9.160;2022-07-04T17:22:54;5.90;;;2.38;;
3465;SDS011;1747;48.884;9.160;2022-07-04T17:25:21;10.50;;;2.10;;
3465;SDS011;1747;48.884;9.160;2022-07-04T17:27:50;3.55;;;1.52;;
3465;SDS011;1747;48.884;9.160;2022-07-04T17:30:17;1.90;;;1.58;;
3465;SDS011;1747;48.884;9.160;2022-07-04T17:32:46;1.98;;;1.42;;